sensor_id;sensor_type;location;lat;lon;timestamp;temperature;humidity
39033;DHT22;24794;51.982;5.878;2023-04-24T00:00:25;10.40;99.90
39033;DHT22;24794;51.982;5.878;2023-04-24T00:01:26;10.40;99.90
39033;DHT22;24794;51.982;5.878;2023-04-24T00:02:27;10.40;99.90
39033;DHT22;24794;51.982;5.878;2023-04-24T00:03:27;10.40;99.90
39033;DHT22;24794;51.982;5.878;2023-04-24T00:04:28;10.40;99.90
39033;DHT22;24794;51.982;5.878;2023-04-24T00:05:29;10.40;99.90
39033;DHT22;24794;51.982;5.878;2023-04-24T00:06:30;10.40;99.90
39033;DHT22;24794;51.982;5.878;2023-04-24T00:07:34;10.40;99.90
39033;DHT22;24794;51.982;5.878;2023-04-24T00:08:35;10.40;99.90
39033;DHT22;24794;51.982;5.878;2023-04-24T00:09:36;10.40;99.90
39033;DHT22;24794;51.982;5.878;2023-04-24T00:10:37;10.40;99.90
39033;DHT22;24794;51.982;5.878;2023-04-24T00:11:37;10.40;99.90
39033;DHT22;24794;51.982;5.878;2023-04-24T00:12:39;10.40;99.90
39033;DHT22;24794;51.982;5.878;2023-04-24T00:13:39;10.40;99.90
39033;DHT22;24794;51.982;5.878;2023-04-24T00:14:40;10.40;99.90
39033;DHT22;24794;51.982;5.878;2023-04-24T00:15:40;10.50;99.90
39033;DHT22;24794;51.982;5.878;2023-04-24T00:16:41;10.50;99.90
39033;DHT22;24794;51.982;5.878;2023-04-24T00:17:41;10.40;99.90
39033;DHT22;24794;51.982;5.878;2023-04-24T00:18:42;10.40;99.90
39033;DHT22;24794;51.982;5.878;2023-04-24T00:19:42;10.50;99.90
39033;DHT22;24794;51.982;5.878;2023-04-24T00:20:43;10.50;99.90
39033;DHT22;24794;51.982;5.878;2023-04-24T00:21:44;10.50;99.90
39033;DHT22;24794;51.982;5.878;2023-04-24T00:22:44;10.50;99.90
39033;DHT22;24794;51.982;5.878;2023-04-24T00:23:45;10.50;99.90
39033;DHT22;24794;51.982;5.878;2023-04-24T00:24:45;10.40;99.90
39033;DHT22;24794;51.982;5.878;2023-04-24T00:25:46;10.40;99.90
39033;DHT22;24794;51.982;5.878;2023-04-24T00:26:47;10.40;99.90
39033;DHT22;24794;51.982;5.878;2023-04-24T00:27:47;10.40;99.90
39033;DHT22;24794;51.982;5.878;2023-04-24T00:28:48;10.40;99.90
39033;DHT22;24794;51.982;5.878;2023-04-24T00:29:48;10.40;99.90
39033;DHT22;24794;51.982;5.878;2023-04-24T00:30:49;10.40;99.90
39033;DHT22;24794;51.982;5.878;2023-04-24T00:31:50;10.40;99.90
39033;DHT22;24794;51.982;5.878;2023-04-24T00:32:51;10.40;99.90
39033;DHT22;24794;51.982;5.878;2023-04-24T00:33:51;10.40;99.90
39033;DHT22;24794;51.982;5.878;2023-04-24T00:34:52;10.40;99.90
39033;DHT22;24794;51.982;5.878;2023-04-24T00:35:52;10.40;99.90
39033;DHT22;24794;51.982;5.878;2023-04-24T00:36:53;10.40;99.90
39033;DHT22;24794;51.982;5.878;2023-04-24T00:37:53;10.40;99.90
39033;DHT22;24794;51.982;5.878;2023-04-24T00:38:55;10.30;99.90
39033;DHT22;24794;51.982;5.878;2023-04-24T00:39:55;10.40;99.90
39033;DHT22;24794;51.982;5.878;2023-04-24T00:40:56;10.30;99.90
39033;DHT22;24794;51.982;5.878;2023-04-24T00:41:56;10.30;99.90
39033;DHT22;24794;51.982;5.878;2023-04-24T00:42:57;10.40;99.90
39033;DHT22;24794;51.982;5.878;2023-04-24T00:43:58;10.30;99.90
39033;DHT22;24794;51.982;5.878;2023-04-24T00:44:58;10.30;99.90
39033;DHT22;24794;51.982;5.878;2023-04-24T00:46:00;10.30;99.90
39033;DHT22;24794;51.982;5.878;2023-04-24T00:47:02;10.30;99.90
39033;DHT22;24794;51.982;5.878;2023-04-24T00:48:02;10.30;99.90
39033;DHT22;24794;51.982;5.878;2023-04-24T00:49:04;10.30;99.90
39033;DHT22;24794;51.982;5.878;2023-04-24T00:50:06;10.30;99.90
39033;DHT22;24794;51.982;5.878;2023-04-24T00:51:07;10.30;99.90
39033;DHT22;24794;51.982;5.878;2023-04-24T00:52:08;10.30;99.90
39033;DHT22;24794;51.982;5.878;2023-04-24T00:53:09;10.30;99.90
39033;DHT22;24794;51.982;5.878;2023-04-24T00:54:09;10.30;99.90
39033;DHT22;24794;51.982;5.878;2023-04-24T00:55:10;10.20;99.90
39033;DHT22;24794;51.982;5.878;2023-04-24T00:56:11;10.20;99.90
39033;DHT22;24794;51.982;5.878;2023-04-24T00:57:13;10.20;99.90
39033;DHT22;24794;51.982;5.878;2023-04-24T00:58:15;10.20;99.90
39033;DHT22;24794;51.982;5.878;2023-04-24T00:59:18;10.20;99.90
39033;DHT22;24794;51.982;5.878;2023-04-24T01:00:19;10.10;99.90
39033;DHT22;24794;51.982;5.878;2023-04-24T01:01:20;10.10;99.90
39033;DHT22;24794;51.982;5.878;2023-04-24T01:02:22;10.10;99.90
39033;DHT22;24794;51.982;5.878;2023-04-24T01:03:27;10.10;99.90
39033;DHT22;24794;51.982;5.878;2023-04-24T01:04:28;10.10;99.90
39033;DHT22;24794;51.982;5.878;2023-04-24T01:05:29;10.10;99.90
39033;DHT22;24794;51.982;5.878;2023-04-24T01:06:30;10.10;99.90
39033;DHT22;24794;51.982;5.878;2023-04-24T01:07:31;10.10;99.90
39033;DHT22;24794;51.982;5.878;2023-04-24T01:08:32;10.10;99.90
39033;DHT22;24794;51.982;5.878;2023-04-24T01:09:36;10.10;99.90
39033;DHT22;24794;51.982;5.878;2023-04-24T01:10:38;10.10;99.90
39033;DHT22;24794;51.982;5.878;2023-04-24T01:11:41;10.10;99.90
39033;DHT22;24794;51.982;5.878;2023-04-24T01:12:43;10.10;99.90
39033;DHT22;24794;51.982;5.878;2023-04-24T01:13:43;10.10;99.90
39033;DHT22;24794;51.982;5.878;2023-04-24T01:14:45;10.10;99.90
39033;DHT22;24794;51.982;5.878;2023-04-24T01:15:46;10.10;99.90
39033;DHT22;24794;51.982;5.878;2023-04-24T01:16:47;10.10;99.90
39033;DHT22;24794;51.982;5.878;2023-04-24T01:17:48;10.20;99.90
39033;DHT22;24794;51.982;5.878;2023-04-24T01:18:48;10.10;99.90
39033;DHT22;24794;51.982;5.878;2023-04-24T01:19:49;10.20;99.90
39033;DHT22;24794;51.982;5.878;2023-04-24T01:20:53;10.20;99.90
39033;DHT22;24794;51.982;5.878;2023-04-24T01:21:58;10.20;99.90
39033;DHT22;24794;51.982;5.878;2023-04-24T01:22:58;10.20;99.90
39033;DHT22;24794;51.982;5.878;2023-04-24T01:23:59;10.20;99.90
39033;DHT22;24794;51.982;5.878;2023-04-24T01:24:59;10.20;99.90
39033;DHT22;24794;51.982;5.878;2023-04-24T01:26:00;10.20;99.90
39033;DHT22;24794;51.982;5.878;2023-04-24T01:27:01;10.20;99.90
39033;DHT22;24794;51.982;5.878;2023-04-24T01:28:02;10.20;99.90
39033;DHT22;24794;51.982;5.878;2023-04-24T01:29:02;10.30;99.90
39033;DHT22;24794;51.982;5.878;2023-04-24T01:30:03;10.20;99.90
39033;DHT22;24794;51.982;5.878;2023-04-24T01:31:05;10.20;99.90
39033;DHT22;24794;51.982;5.878;2023-04-24T01:32:06;10.20;99.90
39033;DHT22;24794;51.982;5.878;2023-04-24T01:33:07;10.20;99.90
39033;DHT22;24794;51.982;5.878;2023-04-24T01:34:08;10.20;99.90
39033;DHT22;24794;51.982;5.878;2023-04-24T01:35:08;10.20;99.90
39033;DHT22;24794;51.982;5.878;2023-04-24T01:36:10;10.20;99.90
39033;DHT22;24794;51.982;5.878;2023-04-24T01:37:11;10.20;99.90
39033;DHT22;24794;51.982;5.878;2023-04-24T01:38:12;10.10;99.90
39033;DHT22;24794;51.982;5.878;2023-04-24T01:39:13;10.10;99.90
39033;DHT22;24794;51.982;5.878;2023-04-24T01:40:14;10.10;99.90
39033;DHT22;24794;51.982;5.878;2023-04-24T01:41:14;10.10;99.90
39033;DHT22;24794;51.982;5.878;2023-04-24T01:42:16;10.10;99.90
39033;DHT22;24794;51.982;5.878;2023-04-24T01:43:16;10.10;99.90
39033;DHT22;24794;51.982;5.878;2023-04-24T01:44:18;10.10;99.90
39033;DHT22;24794;51.982;5.878;2023-04-24T01:45:18;10.10;99.90
39033;DHT22;24794;51.982;5.878;2023-04-24T01:46:19;10.00;99.90
39033;DHT22;24794;51.982;5.878;2023-04-24T01:47:20;10.00;99.90
39033;DHT22;24794;51.982;5.878;2023-04-24T01:48:21;10.00;99.90
39033;DHT22;24794;51.982;5.878;2023-04-24T01:49:22;10.00;99.90
39033;DHT22;24794;51.982;5.878;2023-04-24T01:50:23;10.00;99.90
39033;DHT22;24794;51.982;5.878;2023-04-24T01:51:23;10.00;99.90
39033;DHT22;24794;51.982;5.878;2023-04-24T01:52:24;10.00;99.90
39033;DHT22;24794;51.982;5.878;2023-04-24T01:53:25;10.00;99.90
39033;DHT22;24794;51.982;5.878;2023-04-24T01:54:25;9.90;99.90
39033;DHT22;24794;51.982;5.878;2023-04-24T01:55:26;9.90;99.90
39033;DHT22;24794;51.982;5.878;2023-04-24T01:56:29;9.90;99.90
39033;DHT22;24794;51.982;5.878;2023-04-24T01:57:31;9.90;99.90
39033;DHT22;24794;51.982;5.878;2023-04-24T01:58:31;9.90;99.90
39033;DHT22;24794;51.982;5.878;2023-04-24T01:59:33;9.90;99.90
39033;DHT22;24794;51.982;5.878;2023-04-24T02:00:34;9.90;99.90
39033;DHT22;24794;51.982;5.878;2023-04-24T02:01:35;9.90;99.90
39033;DHT22;24794;51.982;5.878;2023-04-24T02:02:36;9.90;99.90
39033;DHT22;24794;51.982;5.878;2023-04-24T02:03:37;9.90;99.90
39033;DHT22;24794;51.982;5.878;2023-04-24T02:04:39;9.90;99.90
39033;DHT22;24794;51.982;5.878;2023-04-24T02:05:39;9.90;99.90
39033;DHT22;24794;51.982;5.878;2023-04-24T02:06:40;9.90;99.90
39033;DHT22;24794;51.982;5.878;2023-04-24T02:07:40;9.90;99.90
39033;DHT22;24794;51.982;5.878;2023-04-24T02:08:41;9.90;99.90
39033;DHT22;24794;51.982;5.878;2023-04-24T02:09:42;9.90;99.90
39033;DHT22;24794;51.982;5.878;2023-04-24T02:10:42;10.00;99.90
39033;DHT22;24794;51.982;5.878;2023-04-24T02:11:43;10.00;99.90
39033;DHT22;24794;51.982;5.878;2023-04-24T02:12:43;10.00;99.90
39033;DHT22;24794;51.982;5.878;2023-04-24T02:13:44;10.00;99.90
39033;DHT22;24794;51.982;5.878;2023-04-24T02:14:44;10.00;99.90
39033;DHT22;24794;51.982;5.878;2023-04-24T02:15:45;10.00;99.90
39033;DHT22;24794;51.982;5.878;2023-04-24T02:16:45;10.00;99.90
39033;DHT22;24794;51.982;5.878;2023-04-24T02:17:46;10.00;99.90
39033;DHT22;24794;51.982;5.878;2023-04-24T02:18:47;10.00;99.90
39033;DHT22;24794;51.982;5.878;2023-04-24T02:19:47;10.00;99.90
39033;DHT22;24794;51.982;5.878;2023-04-24T02:20:48;10.00;99.90
39033;DHT22;24794;51.982;5.878;2023-04-24T02:21:48;10.00;99.90
39033;DHT22;24794;51.982;5.878;2023-04-24T02:22:49;10.00;99.90
39033;DHT22;24794;51.982;5.878;2023-04-24T02:23:50;10.00;99.90
39033;DHT22;24794;51.982;5.878;2023-04-24T02:24:56;10.00;99.90
39033;DHT22;24794;51.982;5.878;2023-04-24T02:25:57;10.00;99.90
39033;DHT22;24794;51.982;5.878;2023-04-24T02:26:57;10.00;99.90
39033;DHT22;24794;51.982;5.878;2023-04-24T02:27:58;10.00;99.90
39033;DHT22;24794;51.982;5.878;2023-04-24T02:28:58;10.00;99.90
39033;DHT22;24794;51.982;5.878;2023-04-24T02:29:59;10.10;99.90
39033;DHT22;24794;51.982;5.878;2023-04-24T02:30:59;10.10;99.90
39033;DHT22;24794;51.982;5.878;2023-04-24T02:32:00;10.10;99.90
39033;DHT22;24794;51.982;5.878;2023-04-24T02:33:01;10.10;99.90
39033;DHT22;24794;51.982;5.878;2023-04-24T02:34:01;10.10;99.90
39033;DHT22;24794;51.982;5.878;2023-04-24T02:35:02;10.10;99.90
39033;DHT22;24794;51.982;5.878;2023-04-24T02:36:03;10.10;99.90
39033;DHT22;24794;51.982;5.878;2023-04-24T02:37:04;10.10;99.90
39033;DHT22;24794;51.982;5.878;2023-04-24T02:38:04;10.10;99.90
39033;DHT22;24794;51.982;5.878;2023-04-24T02:39:05;10.10;99.90
39033;DHT22;24794;51.982;5.878;2023-04-24T02:40:06;10.10;99.90
39033;DHT22;24794;51.982;5.878;2023-04-24T02:41:07;10.10;99.90
39033;DHT22;24794;51.982;5.878;2023-04-24T02:42:08;10.00;99.90
39033;DHT22;24794;51.982;5.878;2023-04-24T02:43:08;10.00;99.90
39033;DHT22;24794;51.982;5.878;2023-04-24T02:44:09;10.00;99.90
39033;DHT22;24794;51.982;5.878;2023-04-24T02:45:10;10.00;99.90
39033;DHT22;24794;51.982;5.878;2023-04-24T02:46:11;10.00;99.90
39033;DHT22;24794;51.982;5.878;2023-04-24T02:47:11;10.00;99.90
39033;DHT22;24794;51.982;5.878;2023-04-24T02:48:12;10.00;99.90
39033;DHT22;24794;51.982;5.878;2023-04-24T02:49:12;10.00;99.90
39033;DHT22;24794;51.982;5.878;2023-04-24T02:50:13;10.00;99.90
39033;DHT22;24794;51.982;5.878;2023-04-24T02:51:13;10.00;99.90
39033;DHT22;24794;51.982;5.878;2023-04-24T02:52:14;10.00;99.90
39033;DHT22;24794;51.982;5.878;2023-04-24T02:53:15;10.00;99.90
39033;DHT22;24794;51.982;5.878;2023-04-24T02:54:16;10.00;99.90
39033;DHT22;24794;51.982;5.878;2023-04-24T02:55:16;10.00;99.90
39033;DHT22;24794;51.982;5.878;2023-04-24T02:56:17;10.00;99.90
39033;DHT22;24794;51.982;5.878;2023-04-24T02:57:17;10.00;99.90
39033;DHT22;24794;51.982;5.878;2023-04-24T02:58:18;10.00;99.90
39033;DHT22;24794;51.982;5.878;2023-04-24T02:59:20;10.00;99.90
39033;DHT22;24794;51.982;5.878;2023-04-24T03:00:20;10.00;99.90
39033;DHT22;24794;51.982;5.878;2023-04-24T03:01:21;10.00;99.90
39033;DHT22;24794;51.982;5.878;2023-04-24T03:02:21;10.00;99.90
39033;DHT22;24794;51.982;5.878;2023-04-24T03:03:22;10.00;99.90
39033;DHT22;24794;51.982;5.878;2023-04-24T03:04:24;10.00;99.90
39033;DHT22;24794;51.982;5.878;2023-04-24T03:05:24;10.00;99.90
39033;DHT22;24794;51.982;5.878;2023-04-24T03:06:25;10.00;99.90
39033;DHT22;24794;51.982;5.878;2023-04-24T03:07:27;10.00;99.90
39033;DHT22;24794;51.982;5.878;2023-04-24T03:08:27;10.00;99.90
39033;DHT22;24794;51.982;5.878;2023-04-24T03:09:28;10.00;99.90
39033;DHT22;24794;51.982;5.878;2023-04-24T03:10:28;9.90;99.90
39033;DHT22;24794;51.982;5.878;2023-04-24T03:11:29;9.90;99.90
39033;DHT22;24794;51.982;5.878;2023-04-24T03:12:29;9.90;99.90
39033;DHT22;24794;51.982;5.878;2023-04-24T03:13:30;9.90;99.90
39033;DHT22;24794;51.982;5.878;2023-04-24T03:14:31;9.90;99.90
39033;DHT22;24794;51.982;5.878;2023-04-24T03:15:31;9.90;99.90
39033;DHT22;24794;51.982;5.878;2023-04-24T03:16:32;9.90;99.90
39033;DHT22;24794;51.982;5.878;2023-04-24T03:17:33;9.90;99.90
39033;DHT22;24794;51.982;5.878;2023-04-24T03:18:33;9.90;99.90
39033;DHT22;24794;51.982;5.878;2023-04-24T03:19:34;9.90;99.90
39033;DHT22;24794;51.982;5.878;2023-04-24T03:20:34;9.90;99.90
39033;DHT22;24794;51.982;5.878;2023-04-24T03:21:37;9.90;99.90
39033;DHT22;24794;51.982;5.878;2023-04-24T03:22:41;9.90;99.90
39033;DHT22;24794;51.982;5.878;2023-04-24T03:23:41;9.90;99.90
39033;DHT22;24794;51.982;5.878;2023-04-24T03:24:42;9.90;99.90
39033;DHT22;24794;51.982;5.878;2023-04-24T03:25:42;9.90;99.90
39033;DHT22;24794;51.982;5.878;2023-04-24T03:26:43;9.90;99.90
39033;DHT22;24794;51.982;5.878;2023-04-24T03:27:43;9.90;99.90
39033;DHT22;24794;51.982;5.878;2023-04-24T03:28:44;9.90;99.90
39033;DHT22;24794;51.982;5.878;2023-04-24T03:29:44;9.90;99.90
39033;DHT22;24794;51.982;5.878;2023-04-24T03:30:45;9.90;99.90
39033;DHT22;24794;51.982;5.878;2023-04-24T03:31:46;9.90;99.90
39033;DHT22;24794;51.982;5.878;2023-04-24T03:32:46;9.90;99.90
39033;DHT22;24794;51.982;5.878;2023-04-24T03:33:47;9.90;99.90
39033;DHT22;24794;51.982;5.878;2023-04-24T03:34:48;9.90;99.90
39033;DHT22;24794;51.982;5.878;2023-04-24T03:35:49;9.90;99.90
39033;DHT22;24794;51.982;5.878;2023-04-24T03:36:49;9.90;99.90
39033;DHT22;24794;51.982;5.878;2023-04-24T03:37:50;9.90;99.90
39033;DHT22;24794;51.982;5.878;2023-04-24T03:38:50;9.90;99.90
39033;DHT22;24794;51.982;5.878;2023-04-24T03:39:51;9.80;99.90
39033;DHT22;24794;51.982;5.878;2023-04-24T03:40:51;9.90;99.90
39033;DHT22;24794;51.982;5.878;2023-04-24T03:41:52;9.90;99.90
39033;DHT22;24794;51.982;5.878;2023-04-24T03:42:53;9.80;99.90
39033;DHT22;24794;51.982;5.878;2023-04-24T03:43:53;9.90;99.90
39033;DHT22;24794;51.982;5.878;2023-04-24T03:44:54;9.90;99.90
39033;DHT22;24794;51.982;5.878;2023-04-24T03:45:54;9.80;99.90
39033;DHT22;24794;51.982;5.878;2023-04-24T03:46:55;9.80;99.90
39033;DHT22;24794;51.982;5.878;2023-04-24T03:47:55;9.80;99.90
39033;DHT22;24794;51.982;5.878;2023-04-24T03:48:56;9.80;99.90
39033;DHT22;24794;51.982;5.878;2023-04-24T03:49:56;9.80;99.90
39033;DHT22;24794;51.982;5.878;2023-04-24T03:50:57;9.80;99.90
39033;DHT22;24794;51.982;5.878;2023-04-24T03:51:57;9.80;99.90
39033;DHT22;24794;51.982;5.878;2023-04-24T03:52:58;9.80;99.90
39033;DHT22;24794;51.982;5.878;2023-04-24T03:53:58;9.80;99.90
39033;DHT22;24794;51.982;5.878;2023-04-24T03:54:59;9.80;99.90
39033;DHT22;24794;51.982;5.878;2023-04-24T03:56:00;9.80;99.90
39033;DHT22;24794;51.982;5.878;2023-04-24T03:57:00;9.80;99.90
39033;DHT22;24794;51.982;5.878;2023-04-24T03:58:01;9.80;99.90
39033;DHT22;24794;51.982;5.878;2023-04-24T03:59:02;9.70;99.90
39033;DHT22;24794;51.982;5.878;2023-04-24T04:00:03;9.70;99.90
39033;DHT22;24794;51.982;5.878;2023-04-24T04:01:04;9.70;99.90
39033;DHT22;24794;51.982;5.878;2023-04-24T04:02:05;9.70;99.90
39033;DHT22;24794;51.982;5.878;2023-04-24T04:03:06;9.70;99.90
39033;DHT22;24794;51.982;5.878;2023-04-24T04:04:07;9.70;99.90
39033;DHT22;24794;51.982;5.878;2023-04-24T04:05:08;9.70;99.90
39033;DHT22;24794;51.982;5.878;2023-04-24T04:06:08;9.70;99.90
39033;DHT22;24794;51.982;5.878;2023-04-24T04:07:11;9.70;99.90
39033;DHT22;24794;51.982;5.878;2023-04-24T04:08:13;9.70;99.90
39033;DHT22;24794;51.982;5.878;2023-04-24T04:09:13;9.80;99.90
39033;DHT22;24794;51.982;5.878;2023-04-24T04:10:14;9.70;99.90
39033;DHT22;24794;51.982;5.878;2023-04-24T04:11:15;9.70;99.90
39033;DHT22;24794;51.982;5.878;2023-04-24T04:12:15;9.70;99.90
39033;DHT22;24794;51.982;5.878;2023-04-24T04:13:16;9.70;99.90
39033;DHT22;24794;51.982;5.878;2023-04-24T04:14:16;9.70;99.90
39033;DHT22;24794;51.982;5.878;2023-04-24T04:15:17;9.70;99.90
39033;DHT22;24794;51.982;5.878;2023-04-24T04:16:17;9.70;99.90
39033;DHT22;24794;51.982;5.878;2023-04-24T04:17:18;9.60;99.90
39033;DHT22;24794;51.982;5.878;2023-04-24T04:18:18;9.70;99.90
39033;DHT22;24794;51.982;5.878;2023-04-24T04:19:19;9.60;99.90
39033;DHT22;24794;51.982;5.878;2023-04-24T04:20:19;9.60;99.90
39033;DHT22;24794;51.982;5.878;2023-04-24T04:21:20;9.60;99.90
39033;DHT22;24794;51.982;5.878;2023-04-24T04:22:21;9.60;99.90
39033;DHT22;24794;51.982;5.878;2023-04-24T04:23:21;9.60;99.90
39033;DHT22;24794;51.982;5.878;2023-04-24T04:24:22;9.60;99.90
39033;DHT22;24794;51.982;5.878;2023-04-24T04:25:22;9.60;99.90
39033;DHT22;24794;51.982;5.878;2023-04-24T04:26:23;9.60;99.90
39033;DHT22;24794;51.982;5.878;2023-04-24T04:27:25;9.60;99.90
39033;DHT22;24794;51.982;5.878;2023-04-24T04:28:26;9.60;99.90
39033;DHT22;24794;51.982;5.878;2023-04-24T04:29:27;9.60;99.90
39033;DHT22;24794;51.982;5.878;2023-04-24T04:30:27;9.60;99.90
39033;DHT22;24794;51.982;5.878;2023-04-24T04:31:29;9.60;99.90
39033;DHT22;24794;51.982;5.878;2023-04-24T04:32:32;9.60;99.90
39033;DHT22;24794;51.982;5.878;2023-04-24T04:33:33;9.60;99.90
39033;DHT22;24794;51.982;5.878;2023-04-24T04:34:36;9.60;99.90
39033;DHT22;24794;51.982;5.878;2023-04-24T04:35:37;9.60;99.90
39033;DHT22;24794;51.982;5.878;2023-04-24T04:36:38;9.60;99.90
39033;DHT22;24794;51.982;5.878;2023-04-24T04:37:40;9.50;99.90
39033;DHT22;24794;51.982;5.878;2023-04-24T04:38:40;9.60;99.90
39033;DHT22;24794;51.982;5.878;2023-04-24T04:39:43;9.60;99.90
39033;DHT22;24794;51.982;5.878;2023-04-24T04:40:44;9.50;99.90
39033;DHT22;24794;51.982;5.878;2023-04-24T04:41:44;9.60;99.90
39033;DHT22;24794;51.982;5.878;2023-04-24T04:42:49;9.60;99.90
39033;DHT22;24794;51.982;5.878;2023-04-24T04:43:53;9.60;99.90
39033;DHT22;24794;51.982;5.878;2023-04-24T04:44:53;9.60;99.90
39033;DHT22;24794;51.982;5.878;2023-04-24T04:45:54;9.60;99.90
39033;DHT22;24794;51.982;5.878;2023-04-24T04:46:56;9.60;99.90
39033;DHT22;24794;51.982;5.878;2023-04-24T04:47:57;9.60;99.90
39033;DHT22;24794;51.982;5.878;2023-04-24T04:48:58;9.60;99.90
39033;DHT22;24794;51.982;5.878;2023-04-24T04:49:58;9.60;99.90
39033;DHT22;24794;51.982;5.878;2023-04-24T04:50:59;9.60;99.90
39033;DHT22;24794;51.982;5.878;2023-04-24T04:52:00;9.70;99.90
39033;DHT22;24794;51.982;5.878;2023-04-24T04:53:01;9.70;99.90
39033;DHT22;24794;51.982;5.878;2023-04-24T04:54:01;9.60;99.90
39033;DHT22;24794;51.982;5.878;2023-04-24T04:55:02;9.60;99.90
39033;DHT22;24794;51.982;5.878;2023-04-24T04:56:03;9.60;99.90
39033;DHT22;24794;51.982;5.878;2023-04-24T04:57:03;9.60;99.90
39033;DHT22;24794;51.982;5.878;2023-04-24T04:58:04;9.60;99.90
39033;DHT22;24794;51.982;5.878;2023-04-24T04:59:04;9.60;99.90
39033;DHT22;24794;51.982;5.878;2023-04-24T05:00:07;9.60;99.90
39033;DHT22;24794;51.982;5.878;2023-04-24T05:01:10;9.60;99.90
39033;DHT22;24794;51.982;5.878;2023-04-24T05:02:11;9.60;99.90
39033;DHT22;24794;51.982;5.878;2023-04-24T05:03:11;9.60;99.90
39033;DHT22;24794;51.982;5.878;2023-04-24T05:04:12;9.60;99.90
39033;DHT22;24794;51.982;5.878;2023-04-24T05:05:12;9.60;99.90
39033;DHT22;24794;51.982;5.878;2023-04-24T05:06:13;9.60;99.90
39033;DHT22;24794;51.982;5.878;2023-04-24T05:07:13;9.60;99.90
39033;DHT22;24794;51.982;5.878;2023-04-24T05:08:14;9.50;99.90
39033;DHT22;24794;51.982;5.878;2023-04-24T05:09:15;9.50;99.90
39033;DHT22;24794;51.982;5.878;2023-04-24T05:10:16;9.60;99.90
39033;DHT22;24794;51.982;5.878;2023-04-24T05:11:16;9.50;99.90
39033;DHT22;24794;51.982;5.878;2023-04-24T05:12:17;9.50;99.90
39033;DHT22;24794;51.982;5.878;2023-04-24T05:13:17;9.50;99.90
39033;DHT22;24794;51.982;5.878;2023-04-24T05:14:18;9.50;99.90
39033;DHT22;24794;51.982;5.878;2023-04-24T05:15:19;9.50;99.90
39033;DHT22;24794;51.982;5.878;2023-04-24T05:16:19;9.50;99.90
39033;DHT22;24794;51.982;5.878;2023-04-24T05:17:20;9.40;99.90
39033;DHT22;24794;51.982;5.878;2023-04-24T05:18:23;9.50;99.90
39033;DHT22;24794;51.982;5.878;2023-04-24T05:19:24;9.40;99.90
39033;DHT22;24794;51.982;5.878;2023-04-24T05:20:24;9.40;99.90
39033;DHT22;24794;51.982;5.878;2023-04-24T05:21:25;9.40;99.90
39033;DHT22;24794;51.982;5.878;2023-04-24T05:22:27;9.40;99.90
39033;DHT22;24794;51.982;5.878;2023-04-24T05:23:27;9.40;99.90
39033;DHT22;24794;51.982;5.878;2023-04-24T05:24:28;9.40;99.90
39033;DHT22;24794;51.982;5.878;2023-04-24T05:25:28;9.40;99.90
39033;DHT22;24794;51.982;5.878;2023-04-24T05:26:29;9.40;99.90
39033;DHT22;24794;51.982;5.878;2023-04-24T05:27:29;9.40;99.90
39033;DHT22;24794;51.982;5.878;2023-04-24T05:28:30;9.40;99.90
39033;DHT22;24794;51.982;5.878;2023-04-24T05:29:31;9.40;99.90
39033;DHT22;24794;51.982;5.878;2023-04-24T05:30:32;9.40;99.90
39033;DHT22;24794;51.982;5.878;2023-04-24T05:31:32;9.40;99.90
39033;DHT22;24794;51.982;5.878;2023-04-24T05:32:33;9.40;99.90
39033;DHT22;24794;51.982;5.878;2023-04-24T05:33:33;9.40;99.90
39033;DHT22;24794;51.982;5.878;2023-04-24T05:34:34;9.40;99.90
39033;DHT22;24794;51.982;5.878;2023-04-24T05:35:35;9.40;99.90
39033;DHT22;24794;51.982;5.878;2023-04-24T05:36:35;9.40;99.90
39033;DHT22;24794;51.982;5.878;2023-04-24T05:37:36;9.40;99.90
39033;DHT22;24794;51.982;5.878;2023-04-24T05:38:36;9.40;99.90
39033;DHT22;24794;51.982;5.878;2023-04-24T05:39:37;9.40;99.90
39033;DHT22;24794;51.982;5.878;2023-04-24T05:40:38;9.40;99.90
39033;DHT22;24794;51.982;5.878;2023-04-24T05:41:39;9.40;99.90
39033;DHT22;24794;51.982;5.878;2023-04-24T05:42:40;9.40;99.90
39033;DHT22;24794;51.982;5.878;2023-04-24T05:43:40;9.40;99.90
39033;DHT22;24794;51.982;5.878;2023-04-24T05:44:41;9.40;99.90
39033;DHT22;24794;51.982;5.878;2023-04-24T05:45:41;9.40;99.90
39033;DHT22;24794;51.982;5.878;2023-04-24T05:46:42;9.40;99.90
39033;DHT22;24794;51.982;5.878;2023-04-24T05:47:43;9.40;99.90
39033;DHT22;24794;51.982;5.878;2023-04-24T05:48:44;9.40;99.90
39033;DHT22;24794;51.982;5.878;2023-04-24T05:49:44;9.40;99.90
39033;DHT22;24794;51.982;5.878;2023-04-24T05:50:45;9.40;99.90
39033;DHT22;24794;51.982;5.878;2023-04-24T05:51:47;9.40;99.90
39033;DHT22;24794;51.982;5.878;2023-04-24T05:52:48;9.40;99.90
39033;DHT22;24794;51.982;5.878;2023-04-24T05:53:48;9.40;99.90
39033;DHT22;24794;51.982;5.878;2023-04-24T05:54:49;9.40;99.90
39033;DHT22;24794;51.982;5.878;2023-04-24T05:55:49;9.50;99.90
39033;DHT22;24794;51.982;5.878;2023-04-24T05:56:50;9.50;99.90
39033;DHT22;24794;51.982;5.878;2023-04-24T05:57:51;9.50;99.90
39033;DHT22;24794;51.982;5.878;2023-04-24T05:58:51;9.50;99.90
39033;DHT22;24794;51.982;5.878;2023-04-24T05:59:52;9.50;99.90
39033;DHT22;24794;51.982;5.878;2023-04-24T06:00:52;9.50;99.90
39033;DHT22;24794;51.982;5.878;2023-04-24T06:01:53;9.50;99.90
39033;DHT22;24794;51.982;5.878;2023-04-24T06:02:54;9.60;99.90
39033;DHT22;24794;51.982;5.878;2023-04-24T06:03:54;9.60;99.90
39033;DHT22;24794;51.982;5.878;2023-04-24T06:04:55;9.60;99.90
39033;DHT22;24794;51.982;5.878;2023-04-24T06:05:55;9.60;99.90
39033;DHT22;24794;51.982;5.878;2023-04-24T06:06:56;9.60;99.90
39033;DHT22;24794;51.982;5.878;2023-04-24T06:07:57;9.60;99.90
39033;DHT22;24794;51.982;5.878;2023-04-24T06:08:57;9.60;99.90
39033;DHT22;24794;51.982;5.878;2023-04-24T06:09:59;9.60;99.90
39033;DHT22;24794;51.982;5.878;2023-04-24T06:10:59;9.70;99.90
39033;DHT22;24794;51.982;5.878;2023-04-24T06:12:00;9.70;99.90
39033;DHT22;24794;51.982;5.878;2023-04-24T06:13:00;9.70;99.90
39033;DHT22;24794;51.982;5.878;2023-04-24T06:14:01;9.70;99.90
39033;DHT22;24794;51.982;5.878;2023-04-24T06:15:02;9.70;99.90
39033;DHT22;24794;51.982;5.878;2023-04-24T06:16:05;9.70;99.90
39033;DHT22;24794;51.982;5.878;2023-04-24T06:17:05;9.70;99.90
39033;DHT22;24794;51.982;5.878;2023-04-24T06:18:06;9.70;99.90
39033;DHT22;24794;51.982;5.878;2023-04-24T06:19:06;9.70;99.90
39033;DHT22;24794;51.982;5.878;2023-04-24T06:20:07;9.80;99.90
39033;DHT22;24794;51.982;5.878;2023-04-24T06:21:08;9.70;99.90
39033;DHT22;24794;51.982;5.878;2023-04-24T06:22:09;9.70;99.90
39033;DHT22;24794;51.982;5.878;2023-04-24T06:23:10;9.70;99.90
39033;DHT22;24794;51.982;5.878;2023-04-24T06:24:13;9.80;99.90
39033;DHT22;24794;51.982;5.878;2023-04-24T06:25:14;9.80;99.90
39033;DHT22;24794;51.982;5.878;2023-04-24T06:26:15;9.80;99.90
39033;DHT22;24794;51.982;5.878;2023-04-24T06:27:16;9.80;99.90
39033;DHT22;24794;51.982;5.878;2023-04-24T06:28:16;9.80;99.90